Time;durP1;ratioP1;P1;durP2;ratioP2;P2;SDS_P1;SDS_P2;PMS_P1;PMS_P2;Temp;Humidity;BMP_temperature;BMP_pressure;BME280_temperature;BME280_humidity;BME280_pressure;Samples;Min_cycle;Max_cycle;Signal;HPM_P1;HPM_P2
2021/04/02 00:01:34;;;;;;;7.90;3.80;;;;;;;;;;5032398;28;20025;-79
2021/04/02 00:04:00;;;;;;;8.25;3.40;;;;;;;;;;5031579;28;20029;-79
2021/04/02 00:06:26;;;;;;;8.73;3.03;;;;;;;;;;5032205;28;20029;-79
2021/04/02 00:08:52;;;;;;;8.32;3.58;;;;;;;;;;5031846;28;20057;-77
2021/04/02 00:11:18;;;;;;;9.02;3.75;;;;;;;;;;5032085;28;20111;-79
2021/04/02 00:13:46;;;;;;;8.18;2.60;;;;;;;;;;5032505;28;20468;-79
2021/04/02 00:16:13;;;;;;;7.18;3.15;;;;;;;;;;5031766;28;20048;-79
2021/04/02 00:18:39;;;;;;;4.50;2.83;;;;;;;;;;5032013;28;20116;-79
2021/04/02 00:21:06;;;;;;;4.85;2.70;;;;;;;;;;5031131;28;20029;-79
2021/04/02 00:23:33;;;;;;;6.90;3.72;;;;;;;;;;5031827;28;20487;-79
2021/04/02 00:26:00;;;;;;;5.88;3.58;;;;;;;;;;5031462;28;20041;-78
2021/04/02 00:28:27;;;;;;;4.85;4.03;;;;;;;;;;5031822;28;20104;-79
2021/04/02 00:30:55;;;;;;;3.30;2.55;;;;;;;;;;5031419;28;20037;-77
2021/04/02 00:33:22;;;;;;;6.47;3.15;;;;;;;;;;5031748;28;20107;-79
2021/04/02 00:35:49;;;;;;;7.90;3.15;;;;;;;;;;5031590;28;20030;-79
2021/04/02 00:38:15;;;;;;;7.10;2.70;;;;;;;;;;5030827;28;20105;-79
2021/04/02 00:40:45;;;;;;;4.78;2.83;;;;;;;;;;5031663;28;20080;-79
2021/04/02 00:43:12;;;;;;;4.82;2.95;;;;;;;;;;5030967;28;20026;-79
2021/04/02 00:45:38;;;;;;;6.82;3.22;;;;;;;;;;5031945;28;20155;-78
2021/04/02 00:48:05;;;;;;;9.43;4.85;;;;;;;;;;5043781;28;20029;-78
2021/04/02 00:50:34;;;;;;;12.50;3.92;;;;;;;;;;5051199;28;20021;-79
2021/04/02 00:53:00;;;;;;;8.65;3.67;;;;;;;;;;5050676;28;20108;-78
2021/04/02 00:55:26;;;;;;;5.18;3.22;;;;;;;;;;5051202;28;20037;-79
2021/04/02 00:57:52;;;;;;;6.45;3.17;;;;;;;;;;5050850;28;20464;-77
2021/04/02 01:00:19;;;;;;;7.82;3.13;;;;;;;;;;5051235;28;20033;-79
2021/04/02 01:02:45;;;;;;;6.97;4.55;;;;;;;;;;5051088;28;20071;-79
2021/04/02 01:05:14;;;;;;;7.90;3.22;;;;;;;;;;5050463;28;20108;-79
2021/04/02 01:07:40;;;;;;;13.55;4.85;;;;;;;;;;5050459;28;20098;-79
2021/04/02 01:10:10;;;;;;;5.88;3.60;;;;;;;;;;5050106;28;20029;-79
2021/04/02 01:12:37;;;;;;;6.13;2.88;;;;;;;;;;5050845;28;20033;-79
2021/04/02 01:15:07;;;;;;;13.85;3.83;;;;;;;;;;5050034;28;20112;-79
2021/04/02 01:17:33;;;;;;;8.00;3.70;;;;;;;;;;5051103;28;20656;-79
2021/04/02 01:19:59;;;;;;;6.78;3.83;;;;;;;;;;5050308;28;20520;-79
2021/04/02 01:22:28;;;;;;;5.40;3.92;;;;;;;;;;5050609;28;20476;-79
2021/04/02 01:25:13;;;;;;;7.35;3.13;;;;;;;;;;5050373;28;20029;-78
2021/04/02 01:27:57;;;;;;;7.50;3.33;;;;;;;;;;5050818;28;20029;-79
2021/04/02 01:30:24;;;;;;;5.43;2.78;;;;;;;;;;5050354;28;20086;-79
2021/04/02 01:32:52;;;;;;;9.90;2.90;;;;;;;;;;5051123;28;20028;-79
2021/04/02 01:35:27;;;;;;;10.52;3.70;;;;;;;;;;5050345;28;20116;-79
2021/04/02 01:38:12;;;;;;;5.65;2.78;;;;;;;;;;5049915;28;20072;-78
2021/04/02 01:40:43;;;;;;;7.32;4.10;;;;;;;;;;5050040;28;20029;-79
2021/04/02 01:43:13;;;;;;;11.63;3.42;;;;;;;;;;5050088;28;20072;-78
2021/04/02 01:45:40;;;;;;;4.88;3.08;;;;;;;;;;5050891;28;20482;-78
2021/04/02 01:48:07;;;;;;;10.45;3.58;;;;;;;;;;5036661;28;20032;-79
2021/04/02 01:50:36;;;;;;;10.90;3.60;;;;;;;;;;5030763;28;20037;-79
2021/04/02 01:53:04;;;;;;;6.82;3.53;;;;;;;;;;5030285;28;20026;-79
2021/04/02 01:55:30;;;;;;;13.68;3.72;;;;;;;;;;5031163;28;20419;-79
2021/04/02 01:57:57;;;;;;;4.80;3.20;;;;;;;;;;5030086;28;20030;-78
2021/04/02 02:00:29;;;;;;;14.48;4.80;;;;;;;;;;5030409;28;20505;-79
2021/04/02 02:02:59;;;;;;;6.03;2.72;;;;;;;;;;5030011;28;20033;-78
2021/04/02 02:05:26;;;;;;;7.63;3.13;;;;;;;;;;5030350;28;20064;-79
2021/04/02 02:07:53;;;;;;;7.40;3.17;;;;;;;;;;5030505;28;20028;-78
2021/04/02 02:10:21;;;;;;;5.38;3.55;;;;;;;;;;5029949;28;20048;-79
2021/04/02 02:12:48;;;;;;;13.60;3.92;;;;;;;;;;5029847;28;20493;-78
2021/04/02 02:15:15;;;;;;;7.78;3.58;;;;;;;;;;5029947;28;20036;-79
2021/04/02 02:17:44;;;;;;;8.65;3.50;;;;;;;;;;5030394;28;20033;-79
2021/04/02 02:20:11;;;;;;;7.43;3.70;;;;;;;;;;5030366;28;20022;-79
2021/04/02 02:22:38;;;;;;;8.00;4.45;;;;;;;;;;5033806;28;20476;-79
2021/04/02 02:25:08;;;;;;;14.52;4.22;;;;;;;;;;5033517;28;20022;-78
2021/04/02 02:27:36;;;;;;;6.90;3.30;;;;;;;;;;5033389;28;20021;-79
2021/04/02 02:30:05;;;;;;;9.68;3.80;;;;;;;;;;5032447;28;20373;-78
2021/04/02 02:32:31;;;;;;;6.28;3.67;;;;;;;;;;5033971;28;20472;-79
2021/04/02 02:34:58;;;;;;;6.30;3.72;;;;;;;;;;5033711;28;20037;-78
2021/04/02 02:37:24;;;;;;;8.75;4.80;;;;;;;;;;5033648;28;20052;-79
2021/04/02 02:39:50;;;;;;;16.75;4.95;;;;;;;;;;5034218;28;20033;-79
2021/04/02 02:42:17;;;;;;;5.80;3.15;;;;;;;;;;5033735;28;20072;-79
2021/04/02 02:44:45;;;;;;;9.65;2.92;;;;;;;;;;5034004;28;20036;-79
2021/04/02 02:47:11;;;;;;;10.93;4.63;;;;;;;;;;5038385;28;20779;-79
2021/04/02 02:49:38;;;;;;;10.82;3.17;;;;;;;;;;5053767;28;20040;-79
2021/04/02 02:52:05;;;;;;;7.68;3.65;;;;;;;;;;5052754;28;20072;-79
2021/04/02 02:54:32;;;;;;;6.00;3.75;;;;;;;;;;5053275;28;20109;-78
2021/04/02 02:56:59;;;;;;;7.97;4.85;;;;;;;;;;5052900;28;20029;-78
2021/04/02 02:59:26;;;;;;;9.18;3.95;;;;;;;;;;5052602;28;20044;-79
2021/04/02 03:01:53;;;;;;;6.95;3.22;;;;;;;;;;5053244;28;20082;-77
2021/04/02 03:04:20;;;;;;;11.27;4.93;;;;;;;;;;5051979;28;20408;-78
2021/04/02 03:06:47;;;;;;;6.35;3.58;;;;;;;;;;5052738;28;20036;-79
2021/04/02 03:09:15;;;;;;;11.65;3.47;;;;;;;;;;5052824;28;20040;-78
2021/04/02 03:11:42;;;;;;;8.93;3.50;;;;;;;;;;5053476;28;20034;-78
2021/04/02 03:14:08;;;;;;;12.15;3.90;;;;;;;;;;5052370;28;20464;-79
2021/04/02 03:16:37;;;;;;;5.50;2.70;;;;;;;;;;5052745;28;20060;-78
2021/04/02 03:19:03;;;;;;;9.77;3.97;;;;;;;;;;5051909;28;20043;-78
2021/04/02 03:21:30;;;;;;;7.43;3.03;;;;;;;;;;5053102;28;20048;-78
2021/04/02 03:23:57;;;;;;;10.77;4.20;;;;;;;;;;5052184;28;20024;-78
2021/04/02 03:26:24;;;;;;;10.13;4.25;;;;;;;;;;5052436;28;20372;-78
2021/04/02 03:28:51;;;;;;;7.78;3.80;;;;;;;;;;5052678;28;20461;-78
2021/04/02 03:31:18;;;;;;;11.32;3.88;;;;;;;;;;5051524;28;20032;-78
2021/04/02 03:33:49;;;;;;;11.68;3.85;;;;;;;;;;5051196;28;20428;-78
2021/04/02 03:36:15;;;;;;;6.40;3.45;;;;;;;;;;5051867;28;20445;-79
2021/04/02 03:38:44;;;;;;;6.80;3.28;;;;;;;;;;5052073;28;20495;-78
2021/04/02 03:41:15;;;;;;;11.55;4.57;;;;;;;;;;5052060;28;20562;-78
2021/04/02 03:43:42;;;;;;;12.52;4.78;;;;;;;;;;5052502;28;20148;-78
2021/04/02 03:46:09;;;;;;;9.43;4.18;;;;;;;;;;5052186;28;20029;-78
2021/04/02 03:48:36;;;;;;;6.55;2.80;;;;;;;;;;5035549;28;20032;-78
2021/04/02 03:51:04;;;;;;;6.03;4.18;;;;;;;;;;5031588;28;20025;-78
2021/04/02 03:53:32;;;;;;;7.47;3.13;;;;;;;;;;5032470;28;20056;-78
2021/04/02 03:55:59;;;;;;;10.48;3.00;;;;;;;;;;5032142;28;20392;-77
2021/04/02 03:58:26;;;;;;;10.35;4.05;;;;;;;;;;5032362;28;20487;-78
2021/04/02 04:00:57;;;;;;;9.02;3.53;;;;;;;;;;5032035;28;20071;-78
2021/04/02 04:03:24;;;;;;;8.23;3.40;;;;;;;;;;5032203;28;20060;-78
2021/04/02 04:05:52;;;;;;;10.30;3.88;;;;;;;;;;5032139;28;20029;-78
2021/04/02 04:08:19;;;;;;;7.18;4.53;;;;;;;;;;5031601;28;20038;-78
2021/04/02 04:10:46;;;;;;;5.50;3.50;;;;;;;;;;5032093;28;20029;-79
2021/04/02 04:13:14;;;;;;;8.02;3.22;;;;;;;;;;5031621;28;20671;-79
2021/04/02 04:15:41;;;;;;;16.45;3.67;;;;;;;;;;5032225;28;20037;-78
2021/04/02 04:18:09;;;;;;;7.35;3.53;;;;;;;;;;5031071;28;20033;-78
2021/04/02 04:20:36;;;;;;;10.02;3.55;;;;;;;;;;5031852;28;20021;-78
2021/04/02 04:23:02;;;;;;;6.10;3.22;;;;;;;;;;5031270;28;20115;-78
2021/04/02 04:25:28;;;;;;;6.32;3.92;;;;;;;;;;5032081;28;20083;-78
2021/04/02 04:27:55;;;;;;;10.30;3.75;;;;;;;;;;5031042;28;20032;-78
2021/04/02 04:30:22;;;;;;;11.68;3.83;;;;;;;;;;5031618;28;20033;-79
2021/04/02 04:32:49;;;;;;;11.75;3.63;;;;;;;;;;5031649;28;20105;-79
2021/04/02 04:35:16;;;;;;;11.57;4.95;;;;;;;;;;5030732;28;20440;-78
2021/04/02 04:37:43;;;;;;;9.38;3.75;;;;;;;;;;5031140;28;20511;-78
2021/04/02 04:40:11;;;;;;;9.02;4.20;;;;;;;;;;5030300;28;20116;-78
2021/04/02 04:42:37;;;;;;;14.10;4.25;;;;;;;;;;5031164;28;20099;-78
2021/04/02 04:45:05;;;;;;;10.35;3.80;;;;;;;;;;5030454;28;20481;-78
2021/04/02 04:47:31;;;;;;;7.90;3.20;;;;;;;;;;5038977;28;20037;-78
2021/04/02 04:49:57;;;;;;;9.88;3.30;;;;;;;;;;5050587;28;20032;-78
2021/04/02 04:52:24;;;;;;;11.45;3.40;;;;;;;;;;5051327;28;20036;-78
2021/04/02 04:54:52;;;;;;;5.28;3.03;;;;;;;;;;5051306;28;20108;-78
2021/04/02 04:57:20;;;;;;;7.70;3.42;;;;;;;;;;5051390;28;20031;-78
2021/04/02 04:59:47;;;;;;;10.10;3.90;;;;;;;;;;5050925;28;20041;-79
2021/04/02 05:02:13;;;;;;;7.80;3.55;;;;;;;;;;5050868;28;20366;-78
2021/04/02 05:04:40;;;;;;;12.75;3.85;;;;;;;;;;5051031;28;20094;-78
2021/04/02 05:07:07;;;;;;;6.55;4.05;;;;;;;;;;5050176;28;20060;-78
2021/04/02 05:09:33;;;;;;;7.00;3.58;;;;;;;;;;5051261;28;20032;-79
2021/04/02 05:12:00;;;;;;;9.73;4.70;;;;;;;;;;5049897;28;20029;-79
2021/04/02 05:14:26;;;;;;;9.50;3.67;;;;;;;;;;5050946;28;20396;-78
2021/04/02 05:16:53;;;;;;;9.13;3.38;;;;;;;;;;5050398;28;20056;-77
2021/04/02 05:19:19;;;;;;;5.95;2.95;;;;;;;;;;5050443;28;20037;-79
2021/04/02 05:21:46;;;;;;;10.45;3.95;;;;;;;;;;5050429;28;20036;-78
2021/04/02 05:24:12;;;;;;;7.05;3.83;;;;;;;;;;5049748;28;20441;-78
2021/04/02 05:26:39;;;;;;;9.07;3.72;;;;;;;;;;5050909;28;20029;-79
2021/04/02 05:29:05;;;;;;;7.03;3.95;;;;;;;;;;5049336;28;20078;-79
2021/04/02 05:31:32;;;;;;;6.53;4.00;;;;;;;;;;5051069;28;20091;-79
2021/04/02 05:33:58;;;;;;;6.40;3.63;;;;;;;;;;5049626;28;20025;-78
2021/04/02 05:36:24;;;;;;;7.40;3.45;;;;;;;;;;5050039;28;20025;-78
2021/04/02 05:38:51;;;;;;;5.82;2.83;;;;;;;;;;5049951;28;20107;-78
2021/04/02 05:41:23;;;;;;;11.98;3.65;;;;;;;;;;5049714;28;20040;-78
2021/04/02 05:43:54;;;;;;;10.70;4.25;;;;;;;;;;5050983;28;20036;-78
2021/04/02 05:46:22;;;;;;;10.82;4.50;;;;;;;;;;5049232;28;20025;-78
2021/04/02 05:48:54;;;;;;;10.15;3.75;;;;;;;;;;5030968;28;20033;-78
2021/04/02 05:51:21;;;;;;;10.80;4.07;;;;;;;;;;5030312;28;20030;-78
2021/04/02 05:53:48;;;;;;;9.30;4.45;;;;;;;;;;5030395;28;20025;-78
2021/04/02 05:56:14;;;;;;;14.20;5.53;;;;;;;;;;5034130;28;20467;-78
2021/04/02 05:58:40;;;;;;;23.75;5.97;;;;;;;;;;5046387;28;20100;-78
2021/04/02 06:01:07;;;;;;;13.20;4.47;;;;;;;;;;5062549;28;20032;-78
2021/04/02 06:03:33;;;;;;;24.98;6.15;;;;;;;;;;5074021;28;20021;-78
2021/04/02 06:05:59;;;;;;;16.25;5.63;;;;;;;;;;5049437;28;20029;-79
2021/04/02 06:08:25;;;;;;;15.50;4.85;;;;;;;;;;5055062;28;20067;-80
2021/04/02 06:10:51;;;;;;;13.48;5.28;;;;;;;;;;5053373;28;20104;-80
2021/04/02 06:13:18;;;;;;;20.55;5.18;;;;;;;;;;5045324;28;20033;-81
2021/04/02 06:15:44;;;;;;;15.25;4.50;;;;;;;;;;5047360;28;20098;-81
2021/04/02 06:18:11;;;;;;;12.05;5.22;;;;;;;;;;5051692;28;20116;-81
2021/04/02 06:20:43;;;;;;;15.98;5.03;;;;;;;;;;5047083;28;20062;-80
2021/04/02 06:23:09;;;;;;;13.82;5.65;;;;;;;;;;5032158;28;20030;-80
2021/04/02 06:25:38;;;;;;;13.55;6.68;;;;;;;;;;5048645;28;20337;-75
2021/04/02 06:28:11;;;;;;;13.93;5.20;;;;;;;;;;5043835;28;20494;-80
2021/04/02 06:30:38;;;;;;;9.43;4.70;;;;;;;;;;5046041;28;20036;-79
2021/04/02 06:33:06;;;;;;;17.52;5.70;;;;;;;;;;5034717;28;20021;-79
2021/04/02 06:35:32;;;;;;;10.95;5.40;;;;;;;;;;5035724;28;20407;-79
2021/04/02 06:37:58;;;;;;;16.63;6.05;;;;;;;;;;5047466;28;20049;-79
2021/04/02 06:40:24;;;;;;;19.38;5.07;;;;;;;;;;5043870;28;20548;-77
2021/04/02 06:42:51;;;;;;;17.98;5.68;;;;;;;;;;5040656;28;20074;-82
2021/04/02 06:45:19;;;;;;;16.70;5.25;;;;;;;;;;5039551;28;20040;-78
2021/04/02 06:47:46;;;;;;;15.45;5.03;;;;;;;;;;5040887;28;20090;-78
2021/04/02 06:50:18;;;;;;;10.40;5.18;;;;;;;;;;5055457;28;20606;-79
2021/04/02 06:52:47;;;;;;;19.75;5.50;;;;;;;;;;5038261;28;20060;-75
2021/04/02 06:55:13;;;;;;;19.88;6.38;;;;;;;;;;5050053;28;20037;-78
2021/04/02 06:57:42;;;;;;;13.45;5.72;;;;;;;;;;5066839;28;20067;-79
2021/04/02 07:00:09;;;;;;;14.32;6.53;;;;;;;;;;5052411;28;20072;-79
2021/04/02 07:02:35;;;;;;;17.75;6.90;;;;;;;;;;5039638;28;20566;-79
2021/04/02 07:05:02;;;;;;;16.98;6.32;;;;;;;;;;5053737;28;20024;-77
2021/04/02 07:07:29;;;;;;;15.40;5.65;;;;;;;;;;5068322;28;20100;-79
2021/04/02 07:09:56;;;;;;;28.85;5.72;;;;;;;;;;5065481;28;20021;-80
2021/04/02 07:12:22;;;;;;;18.67;7.57;;;;;;;;;;5051960;28;20476;-78
2021/04/02 07:14:49;;;;;;;25.25;6.43;;;;;;;;;;5045225;28;20414;-78
2021/04/02 07:17:15;;;;;;;20.90;5.68;;;;;;;;;;5042906;28;20038;-78
2021/04/02 07:19:42;;;;;;;18.55;7.28;;;;;;;;;;5041390;28;20048;-78
2021/04/02 07:22:09;;;;;;;17.70;7.30;;;;;;;;;;5046327;28;20070;-79
2021/04/02 07:24:36;;;;;;;19.67;6.00;;;;;;;;;;5030914;28;21091;-79
2021/04/02 07:27:02;;;;;;;19.83;6.50;;;;;;;;;;5053565;28;20036;-79
2021/04/02 07:29:28;;;;;;;25.40;7.78;;;;;;;;;;5044526;28;20032;-79
2021/04/02 07:31:55;;;;;;;22.58;6.82;;;;;;;;;;5063977;28;20056;-80
2021/04/02 07:34:22;;;;;;;19.30;6.70;;;;;;;;;;5070259;28;20493;-78
2021/04/02 07:36:48;;;;;;;16.20;6.78;;;;;;;;;;5043450;28;20025;-80
2021/04/02 07:39:16;;;;;;;15.15;6.22;;;;;;;;;;5048725;28;20045;-79
2021/04/02 07:41:50;;;;;;;21.15;6.70;;;;;;;;;;5047913;28;20492;-79
2021/04/02 07:44:18;;;;;;;15.75;6.65;;;;;;;;;;5030976;28;20034;-77
2021/04/02 07:47:06;;;;;;;20.77;7.03;;;;;;;;;;5042484;28;20503;-77
2021/04/02 07:49:32;;;;;;;20.83;6.65;;;;;;;;;;5048008;28;20032;-77
2021/04/02 07:51:59;;;;;;;21.70;6.55;;;;;;;;;;5060156;28;20032;-77
2021/04/02 07:54:32;;;;;;;23.92;7.03;;;;;;;;;;5049182;28;20547;-79
2021/04/02 07:57:03;;;;;;;14.73;7.38;;;;;;;;;;5043616;28;20467;-76
2021/04/02 07:59:41;;;;;;;16.55;7.63;;;;;;;;;;5047704;28;20043;-78
2021/04/02 08:02:12;;;;;;;15.88;7.68;;;;;;;;;;5035160;28;20025;-73
2021/04/02 08:04:38;;;;;;;26.25;7.35;;;;;;;;;;5048927;28;20047;-78
2021/04/02 08:07:15;;;;;;;23.92;6.05;;;;;;;;;;5050005;28;20614;-79
2021/04/02 08:09:50;;;;;;;20.08;6.47;;;;;;;;;;5048873;28;20036;-79
2021/04/02 08:12:16;;;;;;;20.08;6.38;;;;;;;;;;5034869;28;20033;-76
2021/04/02 08:14:47;;;;;;;14.07;5.93;;;;;;;;;;5055689;28;20476;-76
2021/04/02 08:17:17;;;;;;;12.48;5.07;;;;;;;;;;5030875;28;20083;-76
2021/04/02 08:19:43;;;;;;;15.35;6.93;;;;;;;;;;5035555;28;20126;-76
2021/04/02 08:22:11;;;;;;;30.00;8.73;;;;;;;;;;5044462;28;20116;-76
2021/04/02 08:24:39;;;;;;;19.80;6.78;;;;;;;;;;5048882;28;20498;-71
2021/04/02 08:27:05;;;;;;;25.73;7.32;;;;;;;;;;5050190;28;20048;-76
2021/04/02 08:29:32;;;;;;;18.15;6.55;;;;;;;;;;5046259;28;20025;-77
2021/04/02 08:32:01;;;;;;;20.70;6.13;;;;;;;;;;5051352;28;20029;-76
2021/04/02 08:34:29;;;;;;;20.17;6.20;;;;;;;;;;5048617;28;20055;-76
2021/04/02 08:36:57;;;;;;;11.70;5.40;;;;;;;;;;5049230;28;20035;-78
2021/04/02 08:39:24;;;;;;;19.80;6.57;;;;;;;;;;5048990;28;20535;-77
2021/04/02 08:42:04;;;;;;;17.40;5.88;;;;;;;;;;5045277;28;20056;-78
2021/04/02 08:44:37;;;;;;;20.17;7.47;;;;;;;;;;5048844;28;20033;-76
2021/04/02 08:47:04;;;;;;;20.20;7.43;;;;;;;;;;5039645;28;20612;-73
2021/04/02 08:49:38;;;;;;;18.85;6.55;;;;;;;;;;5053771;28;20349;-79
2021/04/02 08:52:17;;;;;;;18.73;6.28;;;;;;;;;;5043557;28;20037;-79
2021/04/02 08:54:45;;;;;;;23.73;6.47;;;;;;;;;;5029482;28;20484;-78
2021/04/02 08:57:11;;;;;;;11.60;6.32;;;;;;;;;;5047075;28;20121;-73
2021/04/02 08:59:39;;;;;;;13.27;5.65;;;;;;;;;;5044137;28;20037;-77
2021/04/02 09:02:06;;;;;;;17.05;6.05;;;;;;;;;;5035400;28;20034;-73
2021/04/02 09:04:33;;;;;;;21.98;6.60;;;;;;;;;;5048282;28;20029;-74
2021/04/02 09:06:59;;;;;;;24.50;7.10;;;;;;;;;;5044281;28;20037;-74
2021/04/02 09:09:28;;;;;;;25.23;8.27;;;;;;;;;;5040166;28;20172;-75
2021/04/02 09:11:54;;;;;;;24.20;7.60;;;;;;;;;;5048464;28;20091;-77
2021/04/02 09:14:20;;;;;;;16.45;6.45;;;;;;;;;;5039544;28;20040;-73
2021/04/02 09:16:47;;;;;;;15.45;5.07;;;;;;;;;;5038389;28;20021;-74
2021/04/02 09:19:14;;;;;;;21.65;7.07;;;;;;;;;;5037739;28;20128;-76
2021/04/02 09:21:41;;;;;;;33.90;8.63;;;;;;;;;;5038919;28;20034;-77
2021/04/02 09:24:07;;;;;;;24.95;6.32;;;;;;;;;;5032866;28;20107;-77
2021/04/02 09:26:43;;;;;;;28.15;8.15;;;;;;;;;;5041716;28;20037;-77
2021/04/02 09:29:09;;;;;;;28.10;8.25;;;;;;;;;;5029814;28;20361;-78
2021/04/02 09:31:36;;;;;;;27.00;7.47;;;;;;;;;;5056389;28;20041;-78
2021/04/02 09:34:06;;;;;;;20.55;7.57;;;;;;;;;;5054954;28;20067;-78
2021/04/02 09:36:34;;;;;;;23.15;7.13;;;;;;;;;;5049688;28;20640;-73
2021/04/02 09:39:06;;;;;;;17.88;6.25;;;;;;;;;;5043054;28;20056;-78
2021/04/02 09:41:34;;;;;;;12.53;5.10;;;;;;;;;;5040635;28;20053;-78
2021/04/02 09:44:05;;;;;;;18.77;6.03;;;;;;;;;;5035315;28;20028;-78
2021/04/02 09:46:33;;;;;;;20.65;6.05;;;;;;;;;;5040395;28;20541;-78
2021/04/02 09:49:01;;;;;;;14.23;6.30;;;;;;;;;;5045460;28;20453;-77
2021/04/02 09:51:28;;;;;;;17.60;6.53;;;;;;;;;;5046533;28;20028;-78
2021/04/02 09:53:54;;;;;;;20.13;7.28;;;;;;;;;;5039058;28;20040;-78
2021/04/02 09:56:20;;;;;;;15.25;5.57;;;;;;;;;;5033283;28;20075;-78
2021/04/02 09:58:46;;;;;;;19.98;5.90;;;;;;;;;;5041524;28;20099;-77
2021/04/02 10:01:12;;;;;;;21.92;6.15;;;;;;;;;;5040505;28;20100;-76
2021/04/02 10:03:38;;;;;;;15.00;5.50;;;;;;;;;;5046895;28;20063;-75
2021/04/02 10:06:04;;;;;;;10.13;5.78;;;;;;;;;;5043942;28;20395;-75
2021/04/02 10:08:30;;;;;;;11.27;4.90;;;;;;;;;;5025004;28;20045;-73
2021/04/02 10:10:56;;;;;;;12.05;5.38;;;;;;;;;;5043855;28;20021;-75
2021/04/02 10:13:22;;;;;;;17.98;5.80;;;;;;;;;;5044679;28;20440;-74
2021/04/02 10:15:48;;;;;;;12.38;4.90;;;;;;;;;;5048903;28;20026;-75
2021/04/02 10:18:17;;;;;;;15.52;5.32;;;;;;;;;;5037394;28;20060;-75
2021/04/02 10:20:43;;;;;;;13.77;4.10;;;;;;;;;;5048649;28;20070;-76
2021/04/02 10:23:09;;;;;;;13.15;5.18;;;;;;;;;;5049264;28;20033;-76
2021/04/02 10:25:35;;;;;;;15.38;4.70;;;;;;;;;;5047800;28;20411;-75
2021/04/02 10:28:01;;;;;;;9.10;5.05;;;;;;;;;;5037853;28;20030;-76
2021/04/02 10:30:27;;;;;;;10.45;4.15;;;;;;;;;;5028007;28;20033;-72
2021/04/02 10:32:54;;;;;;;14.48;4.72;;;;;;;;;;5036258;28;20078;-76
2021/04/02 10:35:20;;;;;;;9.77;4.22;;;;;;;;;;5038895;28;20482;-76
2021/04/02 10:37:46;;;;;;;6.68;4.50;;;;;;;;;;5030343;28;20052;-76
2021/04/02 10:40:13;;;;;;;12.93;4.18;;;;;;;;;;5028907;28;20033;-76
2021/04/02 10:42:39;;;;;;;6.25;3.42;;;;;;;;;;5031013;28;20040;-76
2021/04/02 10:45:06;;;;;;;7.45;4.88;;;;;;;;;;5032169;28;20029;-76
2021/04/02 10:47:32;;;;;;;38.17;5.18;;;;;;;;;;5035380;28;20124;-76
2021/04/02 10:49:58;;;;;;;11.18;3.30;;;;;;;;;;5052795;28;20013;-76
2021/04/02 10:52:24;;;;;;;12.52;4.53;;;;;;;;;;5069042;28;20118;-76
2021/04/02 10:54:50;;;;;;;8.30;4.32;;;;;;;;;;5072275;28;20024;-76
2021/04/02 10:57:16;;;;;;;7.53;3.55;;;;;;;;;;5071481;28;20020;-76
2021/04/02 10:59:43;;;;;;;8.93;3.97;;;;;;;;;;5052899;28;20544;-76
2021/04/02 11:02:09;;;;;;;14.23;3.92;;;;;;;;;;5052356;28;20128;-76
2021/04/02 11:04:35;;;;;;;9.43;4.68;;;;;;;;;;5039672;28;20033;-76
2021/04/02 11:07:01;;;;;;;8.20;4.15;;;;;;;;;;5031421;28;20100;-76
2021/04/02 11:09:28;;;;;;;7.93;3.30;;;;;;;;;;5031389;28;20026;-76
2021/04/02 11:11:55;;;;;;;16.30;3.97;;;;;;;;;;5049710;28;20060;-76
2021/04/02 11:14:21;;;;;;;11.30;3.83;;;;;;;;;;5050913;28;20560;-75
2021/04/02 11:16:47;;;;;;;8.48;3.55;;;;;;;;;;5051678;28;20337;-76
2021/04/02 11:19:13;;;;;;;10.48;3.60;;;;;;;;;;5051716;28;20124;-76
2021/04/02 11:21:39;;;;;;;6.57;3.45;;;;;;;;;;5060190;28;20033;-76
2021/04/02 11:24:06;;;;;;;8.10;3.38;;;;;;;;;;5047119;28;20032;-76
2021/04/02 11:26:33;;;;;;;6.57;3.45;;;;;;;;;;5047474;28;20048;-78
2021/04/02 11:28:59;;;;;;;14.02;4.05;;;;;;;;;;5043846;28;20021;-75
2021/04/02 11:31:25;;;;;;;9.32;3.90;;;;;;;;;;5044698;28;20029;-75
2021/04/02 11:33:51;;;;;;;9.10;3.55;;;;;;;;;;5051543;28;20107;-76
2021/04/02 11:36:18;;;;;;;5.75;3.75;;;;;;;;;;5048954;28;20372;-75
2021/04/02 11:38:44;;;;;;;8.40;4.25;;;;;;;;;;5021758;28;20782;-76
2021/04/02 11:41:11;;;;;;;13.73;4.05;;;;;;;;;;5032483;28;20052;-76
2021/04/02 11:43:38;;;;;;;14.50;3.55;;;;;;;;;;5029081;28;20037;-76
2021/04/02 11:46:04;;;;;;;10.68;3.90;;;;;;;;;;5030588;28;20153;-79
2021/04/02 11:48:30;;;;;;;5.75;3.30;;;;;;;;;;5028375;28;20033;-79
2021/04/02 11:50:56;;;;;;;8.00;4.30;;;;;;;;;;5027219;28;20052;-78
2021/04/02 11:53:23;;;;;;;20.85;4.68;;;;;;;;;;5028116;28;20090;-78
2021/04/02 11:55:49;;;;;;;6.25;3.83;;;;;;;;;;5029612;28;20517;-78
2021/04/02 11:58:15;;;;;;;10.65;4.20;;;;;;;;;;5030643;28;20042;-78
2021/04/02 12:00:41;;;;;;;11.52;3.75;;;;;;;;;;5030851;28;20569;-79
2021/04/02 12:03:07;;;;;;;13.07;3.95;;;;;;;;;;5031974;28;20028;-79
2021/04/02 12:05:33;;;;;;;8.57;4.32;;;;;;;;;;5029397;28;20037;-78
2021/04/02 12:07:59;;;;;;;9.50;4.63;;;;;;;;;;5029772;28;20043;-82
2021/04/02 12:10:25;;;;;;;10.45;3.40;;;;;;;;;;5029475;28;20045;-78
2021/04/02 12:12:52;;;;;;;9.48;4.05;;;;;;;;;;5029315;28;20033;-79
2021/04/02 12:15:18;;;;;;;9.40;4.15;;;;;;;;;;5030047;28;20112;-76
2021/04/02 12:17:44;;;;;;;6.28;3.30;;;;;;;;;;5032290;28;20118;-75
2021/04/02 12:20:11;;;;;;;9.57;3.53;;;;;;;;;;5030966;28;20774;-80
2021/04/02 12:22:38;;;;;;;13.52;4.22;;;;;;;;;;5029097;28;20506;-79
2021/04/02 12:25:05;;;;;;;11.68;3.97;;;;;;;;;;5029781;28;20111;-79
2021/04/02 12:27:31;;;;;;;9.60;4.28;;;;;;;;;;5029775;28;20040;-80
2021/04/02 12:29:57;;;;;;;12.95;4.20;;;;;;;;;;5029749;28;20102;-79
2021/04/02 12:32:24;;;;;;;9.82;3.47;;;;;;;;;;5030314;28;20801;-79
2021/04/02 12:34:50;;;;;;;4.90;2.85;;;;;;;;;;5033275;28;20037;-79
2021/04/02 12:37:16;;;;;;;11.45;3.53;;;;;;;;;;5028149;28;20052;-74
2021/04/02 12:39:43;;;;;;;10.35;4.28;;;;;;;;;;5027964;28;20068;-75
2021/04/02 12:42:09;;;;;;;8.27;3.80;;;;;;;;;;5028453;28;20033;-80
2021/04/02 12:44:35;;;;;;;11.52;4.20;;;;;;;;;;5031231;28;20531;-80
2021/04/02 12:47:02;;;;;;;13.57;3.92;;;;;;;;;;5030712;28;20416;-79
2021/04/02 12:49:28;;;;;;;7.80;3.33;;;;;;;;;;5028422;28;20037;-79
2021/04/02 12:51:54;;;;;;;16.13;4.55;;;;;;;;;;5027793;28;20041;-79
2021/04/02 12:54:20;;;;;;;15.98;4.00;;;;;;;;;;5030712;28;20102;-81
2021/04/02 12:56:46;;;;;;;10.30;3.30;;;;;;;;;;5029302;28;20025;-81
2021/04/02 12:59:12;;;;;;;9.25;4.07;;;;;;;;;;5029362;28;20030;-80
2021/04/02 13:01:38;;;;;;;8.73;3.67;;;;;;;;;;5028670;28;20112;-80
2021/04/02 13:04:04;;;;;;;5.43;3.92;;;;;;;;;;5029474;28;20041;-80
2021/04/02 13:06:31;;;;;;;10.82;4.70;;;;;;;;;;5028479;28;20040;-80
2021/04/02 13:08:57;;;;;;;11.18;4.07;;;;;;;;;;5028982;28;20120;-81
2021/04/02 13:11:23;;;;;;;8.52;3.20;;;;;;;;;;5027275;28;20095;-80
2021/04/02 13:13:50;;;;;;;7.18;3.83;;;;;;;;;;5029946;28;20095;-79
2021/04/02 13:16:16;;;;;;;11.63;3.72;;;;;;;;;;5028443;28;20036;-76
2021/04/02 13:18:42;;;;;;;9.68;3.58;;;;;;;;;;5030571;28;20094;-80
2021/04/02 13:21:09;;;;;;;23.00;3.58;;;;;;;;;;5027853;28;20574;-80
2021/04/02 13:23:35;;;;;;;7.68;3.50;;;;;;;;;;5028261;28;20463;-79
2021/04/02 13:26:01;;;;;;;10.75;4.00;;;;;;;;;;5026165;28;20041;-80
2021/04/02 13:28:27;;;;;;;5.43;3.95;;;;;;;;;;5028278;28;20488;-81
2021/04/02 13:30:53;;;;;;;6.18;3.92;;;;;;;;;;5031517;28;20387;-80
2021/04/02 13:33:19;;;;;;;10.35;5.28;;;;;;;;;;5029948;28;20052;-80
2021/04/02 13:35:46;;;;;;;9.10;4.00;;;;;;;;;;5030197;28;20064;-81
2021/04/02 13:38:12;;;;;;;9.07;5.07;;;;;;;;;;5029851;28;20378;-79
2021/04/02 13:40:38;;;;;;;15.00;4.18;;;;;;;;;;5029840;28;20068;-80
2021/04/02 13:43:05;;;;;;;13.95;4.50;;;;;;;;;;5030290;28;20033;-77
2021/04/02 13:45:31;;;;;;;9.95;4.43;;;;;;;;;;5026854;28;20037;-84
2021/04/02 13:47:57;;;;;;;11.48;4.68;;;;;;;;;;5029640;28;20544;-80
2021/04/02 13:50:26;;;;;;;11.57;4.50;;;;;;;;;;5025775;28;20029;-80
2021/04/02 13:52:52;;;;;;;9.93;4.53;;;;;;;;;;5029664;28;20129;-74
2021/04/02 13:55:20;;;;;;;9.70;4.63;;;;;;;;;;5029975;28;20041;-78
2021/04/02 13:57:47;;;;;;;9.93;5.28;;;;;;;;;;5028468;28;20028;-79
2021/04/02 14:00:14;;;;;;;9.23;4.47;;;;;;;;;;5026224;28;20107;-77
2021/04/02 14:02:43;;;;;;;16.48;5.47;;;;;;;;;;5026147;28;20040;-78
2021/04/02 14:05:10;;;;;;;15.68;4.30;;;;;;;;;;5029092;28;20045;-78
2021/04/02 14:07:37;;;;;;;17.55;4.13;;;;;;;;;;5027000;28;20101;-74
2021/04/02 14:10:05;;;;;;;9.35;3.20;;;;;;;;;;5029230;28;20029;-79
2021/04/02 14:12:31;;;;;;;8.85;4.85;;;;;;;;;;5025961;28;20044;-77
2021/04/02 14:14:57;;;;;;;9.52;4.78;;;;;;;;;;5029211;28;20653;-78
2021/04/02 14:17:23;;;;;;;6.20;3.45;;;;;;;;;;5030506;28;20452;-77
2021/04/02 14:19:49;;;;;;;11.10;5.15;;;;;;;;;;5031059;28;20037;-77
2021/04/02 14:22:15;;;;;;;8.05;4.03;;;;;;;;;;5034086;28;21459;-78
2021/04/02 14:24:41;;;;;;;13.63;5.00;;;;;;;;;;5031459;28;20033;-78
2021/04/02 14:27:08;;;;;;;15.93;4.63;;;;;;;;;;5032378;28;20033;-78
2021/04/02 14:29:34;;;;;;;10.63;5.07;;;;;;;;;;5033376;28;20595;-78
2021/04/02 14:32:00;;;;;;;12.25;4.25;;;;;;;;;;5033196;28;20044;-77
2021/04/02 14:34:26;;;;;;;11.13;5.53;;;;;;;;;;5031460;28;20578;-78
2021/04/02 14:36:53;;;;;;;22.50;5.72;;;;;;;;;;5032843;28;20037;-78